Time;durP1;ratioP1;P1;durP2;ratioP2;P2;SDS_P1;SDS_P2;PMS_P1;PMS_P2;Temp;Humidity;BMP_temperature;BMP_pressure;BME280_temperature;BME280_humidity;BME280_pressure;Samples;Min_cycle;Max_cycle;Signal;HPM_P1;HPM_P2
2023/09/30 00:00:41;;;;;;;;;;;;;;;12.67;95.26;102411.13;5086470;28;1229;-79
2023/09/30 00:03:07;;;;;;;;;;;;;;;12.67;95.85;102405.06;5087911;28;1144;-79
2023/09/30 00:05:32;;;;;;;;;;;;;;;12.67;95.44;102400.72;5087492;28;1319;-79
2023/09/30 00:07:57;;;;;;;;;;;;;;;12.64;95.97;102408.72;5087557;28;1227;-78
2023/09/30 00:10:22;;;;;;;;;;;;;;;12.64;95.45;102418.28;5094068;28;1893;-79
2023/09/30 00:12:47;;;;;;;;;;;;;;;12.66;95.84;102424.22;5088741;28;1565;-79
2023/09/30 00:15:12;;;;;;;;;;;;;;;12.64;95.73;102421.72;5093579;28;1039;-79
2023/09/30 00:17:38;;;;;;;;;;;;;;;12.63;96.02;102425.28;5093885;28;1052;-79
2023/09/30 00:20:04;;;;;;;;;;;;;;;12.59;95.99;102428.16;5100009;28;1065;-78
2023/09/30 00:22:29;;;;;;;;;;;;;;;12.57;96.05;102417.88;5090930;28;1305;-79
2023/09/30 00:24:54;;;;;;;;;;;;;;;12.59;96.69;102413.38;5095906;28;1063;-79
2023/09/30 00:27:19;;;;;;;;;;;;;;;12.61;96.07;102423.69;5090411;28;1074;-78
2023/09/30 00:29:44;;;;;;;;;;;;;;;12.59;96.36;102423.78;5092204;28;1128;-79
2023/09/30 00:32:10;;;;;;;;;;;;;;;12.56;96.30;102424.00;5085346;28;1914;-79
2023/09/30 00:34:35;;;;;;;;;;;;;;;12.54;96.72;102420.66;5083599;28;1280;-79
2023/09/30 00:37:00;;;;;;;;;;;;;;;12.55;96.62;102427.53;5090866;28;1020;-79
2023/09/30 00:39:29;;;;;;;;;;;;;;;12.55;96.91;102432.72;5083706;28;1194;-79
2023/09/30 00:41:55;;;;;;;;;;;;;;;12.53;97.01;102445.00;5087917;28;1113;-76
2023/09/30 00:44:20;;;;;;;;;;;;;;;12.49;96.69;102456.53;5087894;28;1294;-77
2023/09/30 00:46:45;;;;;;;;;;;;;;;12.44;97.11;102450.78;5084195;28;1158;-77
2023/09/30 00:49:13;;;;;;;;;;;;;;;12.41;96.95;102451.00;5080309;28;1250;-77
2023/09/30 00:51:38;;;;;;;;;;;;;;;12.42;97.44;102448.28;5080570;28;2255;-76
2023/09/30 00:54:03;;;;;;;;;;;;;;;12.47;97.22;102429.78;5083841;28;1227;-76
2023/09/30 00:56:30;;;;;;;;;;;;;;;12.49;97.04;102425.31;5083576;28;1366;-77
2023/09/30 00:58:55;;;;;;;;;;;;;;;12.51;96.94;102439.09;5087400;28;1175;-76
2023/09/30 01:01:21;;;;;;;;;;;;;;;12.53;97.49;102426.78;5084468;28;1229;-76
2023/09/30 01:03:47;;;;;;;;;;;;;;;12.52;97.34;102422.53;5081543;28;1313;-76
2023/09/30 01:06:12;;;;;;;;;;;;;;;12.51;96.90;102431.28;5086209;28;1237;-77
2023/09/30 01:08:38;;;;;;;;;;;;;;;12.50;97.12;102437.38;5090115;28;1219;-76
2023/09/30 01:11:03;;;;;;;;;;;;;;;12.49;97.02;102448.72;5083437;28;1894;-77
2023/09/30 01:13:35;;;;;;;;;;;;;;;12.45;97.08;102453.31;5087418;28;1449;-77
2023/09/30 01:16:09;;;;;;;;;;;;;;;12.42;97.49;102452.66;5084956;28;1286;-76
2023/09/30 01:18:34;;;;;;;;;;;;;;;12.42;97.52;102442.25;5086995;28;1296;-76
2023/09/30 01:21:03;;;;;;;;;;;;;;;12.42;97.15;102437.06;5092988;28;1243;-76
2023/09/30 01:23:29;;;;;;;;;;;;;;;12.39;97.14;102442.47;5076882;28;1320;-76
2023/09/30 01:25:54;;;;;;;;;;;;;;;12.38;97.52;102461.59;5086197;28;1345;-76
2023/09/30 01:28:20;;;;;;;;;;;;;;;12.32;97.36;102472.38;5083997;28;1257;-76
2023/09/30 01:30:45;;;;;;;;;;;;;;;12.30;97.54;102477.69;5076263;28;1963;-76
2023/09/30 01:33:11;;;;;;;;;;;;;;;12.30;97.47;102479.47;5087399;28;1131;-77
2023/09/30 01:35:36;;;;;;;;;;;;;;;12.31;97.83;102475.91;5085276;28;1508;-76
2023/09/30 01:38:01;;;;;;;;;;;;;;;12.34;97.67;102473.16;5086314;28;1118;-77
2023/09/30 01:40:26;;;;;;;;;;;;;;;12.31;97.61;102460.31;5082799;28;965;-76
2023/09/30 01:42:51;;;;;;;;;;;;;;;12.32;97.59;102461.97;5081987;28;1151;-76
2023/09/30 01:45:17;;;;;;;;;;;;;;;12.32;97.75;102472.38;5090796;28;1202;-76
2023/09/30 01:47:42;;;;;;;;;;;;;;;12.23;97.53;102459.03;5090928;28;1170;-76
2023/09/30 01:50:07;;;;;;;;;;;;;;;12.23;97.65;102453.00;5087430;28;1145;-76
2023/09/30 01:52:33;;;;;;;;;;;;;;;12.20;97.45;102438.41;5080626;28;1897;-76
2023/09/30 01:54:58;;;;;;;;;;;;;;;12.19;97.83;102444.53;5087246;28;1048;-76
2023/09/30 01:57:23;;;;;;;;;;;;;;;12.21;98.23;102445.28;5084723;28;1373;-77
2023/09/30 01:59:49;;;;;;;;;;;;;;;12.19;97.90;102447.13;5090782;28;1093;-77
2023/09/30 02:02:15;;;;;;;;;;;;;;;12.17;97.87;102449.00;5078984;28;1115;-77
2023/09/30 02:04:40;;;;;;;;;;;;;;;12.16;97.95;102439.53;5088627;28;1253;-77
2023/09/30 02:07:06;;;;;;;;;;;;;;;12.13;97.93;102444.91;5090055;28;1134;-77
2023/09/30 02:09:31;;;;;;;;;;;;;;;12.10;98.15;102452.94;5087816;28;1444;-77
2023/09/30 02:11:56;;;;;;;;;;;;;;;12.06;98.32;102451.44;5083372;28;1965;-76
2023/09/30 02:14:21;;;;;;;;;;;;;;;12.04;98.78;102453.28;5087052;28;1267;-76
2023/09/30 02:16:46;;;;;;;;;;;;;;;12.08;98.61;102464.34;5085122;28;1199;-76
2023/09/30 02:19:12;;;;;;;;;;;;;;;12.09;98.67;102472.03;5079891;28;1135;-76
2023/09/30 02:21:38;;;;;;;;;;;;;;;12.09;98.99;102472.03;5081115;28;1078;-76
2023/09/30 02:24:05;;;;;;;;;;;;;;;12.09;99.08;102466.84;5078556;28;1141;-76
2023/09/30 02:26:32;;;;;;;;;;;;;;;12.08;99.30;102464.34;5079967;28;1289;-76
2023/09/30 02:28:57;;;;;;;;;;;;;;;12.07;99.47;102468.72;5078024;28;1150;-76
2023/09/30 02:31:24;;;;;;;;;;;;;;;12.06;99.74;102472.25;5087957;28;1975;-76
2023/09/30 02:33:49;;;;;;;;;;;;;;;12.08;99.25;102467.78;5082973;28;1246;-76
2023/09/30 02:36:15;;;;;;;;;;;;;;;12.10;99.62;102468.53;5092807;28;1062;-76
2023/09/30 02:38:41;;;;;;;;;;;;;;;12.08;99.50;102459.97;5080422;28;1376;-76
2023/09/30 02:41:06;;;;;;;;;;;;;;;12.05;99.05;102457.59;5085207;28;1138;-76
2023/09/30 02:43:32;;;;;;;;;;;;;;;12.06;99.30;102454.03;5085566;28;1417;-76
2023/09/30 02:45:57;;;;;;;;;;;;;;;12.07;99.89;102458.31;5083242;28;1234;-76
2023/09/30 02:48:22;;;;;;;;;;;;;;;12.09;99.99;102451.25;5084532;28;1370;-76
2023/09/30 02:50:48;;;;;;;;;;;;;;;12.12;99.73;102440.66;5089409;28;1881;-76
2023/09/30 02:53:13;;;;;;;;;;;;;;;12.10;99.13;102439.94;5081229;28;1277;-76
2023/09/30 02:55:39;;;;;;;;;;;;;;;12.11;99.81;102439.00;5087713;28;1290;-76
2023/09/30 02:58:04;;;;;;;;;;;;;;;12.13;99.38;102442.31;5084626;28;1177;-76
2023/09/30 03:00:32;;;;;;;;;;;;;;;12.13;99.13;102437.13;5085622;28;1280;-76
2023/09/30 03:02:59;;;;;;;;;;;;;;;12.13;99.34;102425.88;5085451;28;1137;-76
2023/09/30 03:05:24;;;;;;;;;;;;;;;12.09;99.42;102443.44;5083350;28;1290;-77
2023/09/30 03:07:52;;;;;;;;;;;;;;;12.05;99.73;102454.97;5087851;28;1222;-76
2023/09/30 03:10:20;;;;;;;;;;;;;;;12.05;99.60;102454.16;5085286;28;1894;-76
2023/09/30 03:12:45;;;;;;;;;;;;;;;12.05;99.73;102449.78;5082380;28;1203;-76
2023/09/30 03:15:10;;;;;;;;;;;;;;;12.06;99.65;102450.63;5085759;28;1418;-76
2023/09/30 03:17:37;;;;;;;;;;;;;;;12.06;99.78;102446.25;5078669;28;1842;-76
2023/09/30 03:20:08;;;;;;;;;;;;;;;12.07;99.49;102436.66;5088199;28;1209;-76
2023/09/30 03:22:34;;;;;;;;;;;;;;;12.09;99.99;102445.19;5086853;28;1594;-76
2023/09/30 03:25:00;;;;;;;;;;;;;;;12.08;99.69;102439.16;5088389;28;1061;-76
2023/09/30 03:27:25;;;;;;;;;;;;;;;12.10;100.00;102436.47;5079896;28;1096;-76
2023/09/30 03:29:50;;;;;;;;;;;;;;;12.08;100.00;102436.56;5089071;28;1302;-76
2023/09/30 03:32:15;;;;;;;;;;;;;;;12.07;99.91;102442.72;5088389;28;2005;-75
2023/09/30 03:34:44;;;;;;;;;;;;;;;12.05;99.93;102433.34;5086822;28;1393;-76
2023/09/30 03:37:10;;;;;;;;;;;;;;;12.06;100.00;102441.03;5106970;28;1134;-76
2023/09/30 03:39:35;;;;;;;;;;;;;;;12.08;100.00;102433.97;5103840;28;1154;-76
2023/09/30 03:42:01;;;;;;;;;;;;;;;12.08;100.00;102433.97;5107754;28;1082;-76
2023/09/30 03:44:26;;;;;;;;;;;;;;;12.09;100.00;102440.84;5104312;28;1283;-76
2023/09/30 03:46:52;;;;;;;;;;;;;;;12.09;100.00;102435.63;5105420;28;1293;-77
2023/09/30 03:49:19;;;;;;;;;;;;;;;12.10;100.00;102442.53;5094988;28;1078;-77
2023/09/30 03:51:45;;;;;;;;;;;;;;;12.09;100.00;102440.00;5092678;28;1898;-77
2023/09/30 03:54:11;;;;;;;;;;;;;;;12.11;100.00;102439.00;5083330;28;1173;-76
2023/09/30 03:56:38;;;;;;;;;;;;;;;12.11;100.00;102439.00;5093343;28;1053;-76
2023/09/30 03:59:03;;;;;;;;;;;;;;;12.10;100.00;102432.13;5095070;28;1066;-77
2023/09/30 04:01:29;;;;;;;;;;;;;;;12.10;100.00;102432.13;5093061;28;1128;-76
2023/09/30 04:03:55;;;;;;;;;;;;;;;12.09;100.00;102429.59;5092852;28;1163;-76
2023/09/30 04:06:20;;;;;;;;;;;;;;;12.09;100.00;102440.00;5081875;28;1111;-77
2023/09/30 04:08:45;;;;;;;;;;;;;;;12.07;100.00;102437.50;5093238;28;1172;-77
2023/09/30 04:11:16;;;;;;;;;;;;;;;12.06;100.00;102451.44;5087574;28;1898;-76
2023/09/30 04:13:42;;;;;;;;;;;;;;;12.04;100.00;102453.28;5083782;28;1182;-75
2023/09/30 04:16:07;;;;;;;;;;;;;;;12.02;100.00;102438.72;5084029;28;1289;-76
2023/09/30 04:18:32;;;;;;;;;;;;;;;12.02;100.00;102436.94;5085621;28;1084;-77
2023/09/30 04:20:57;;;;;;;;;;;;;;;12.05;100.00;102441.97;5088567;28;1277;-76
2023/09/30 04:23:22;;;;;;;;;;;;;;;12.06;100.00;102443.63;5087227;28;1060;-76
2023/09/30 04:25:48;;;;;;;;;;;;;;;12.07;100.00;102447.06;5074144;28;1283;-77
2023/09/30 04:28:13;;;;;;;;;;;;;;;12.06;100.00;102446.25;5085991;28;1276;-77
2023/09/30 04:30:39;;;;;;;;;;;;;;;12.04;100.00;102442.88;5084424;28;1906;-76
2023/09/30 04:33:04;;;;;;;;;;;;;;;12.04;100.00;102442.88;5079684;28;1148;-77
2023/09/30 04:35:30;;;;;;;;;;;;;;;12.05;100.00;102449.78;5083816;28;1444;-76
2023/09/30 04:37:55;;;;;;;;;;;;;;;12.05;100.00;102449.78;5089222;28;1221;-76
2023/09/30 04:40:21;;;;;;;;;;;;;;;12.05;100.00;102457.59;5096132;28;1292;-76
2023/09/30 04:42:47;;;;;;;;;;;;;;;12.06;100.00;102461.84;5085862;28;1337;-77
2023/09/30 04:45:12;;;;;;;;;;;;;;;12.05;100.00;102460.19;5093793;28;1210;-77
2023/09/30 04:47:38;;;;;;;;;;;;;;;12.04;100.00;102463.69;5090983;28;1225;-77
2023/09/30 04:50:07;;;;;;;;;;;;;;;12.03;100.00;102462.03;5083981;28;1105;-76
2023/09/30 04:52:32;;;;;;;;;;;;;;;12.03;100.00;102455.97;5090850;28;1967;-77
2023/09/30 04:54:58;;;;;;;;;;;;;;;12.03;100.00;102455.97;5084988;28;1318;-77
2023/09/30 04:57:23;;;;;;;;;;;;;;;12.03;100.00;102456.81;5090226;28;1237;-77
2023/09/30 04:59:48;;;;;;;;;;;;;;;12.02;100.00;102457.75;5096422;28;1229;-76
2023/09/30 05:02:17;;;;;;;;;;;;;;;12.01;100.00;102468.25;5082666;28;1206;-77
2023/09/30 05:04:44;;;;;;;;;;;;;;;11.99;100.00;102465.75;5090156;28;1142;-76
2023/09/30 05:07:10;;;;;;;;;;;;;;;11.98;100.00;102477.06;5091588;28;1179;-77
2023/09/30 05:09:36;;;;;;;;;;;;;;;11.99;100.00;102483.97;5092583;28;1127;-76
2023/09/30 05:12:01;;;;;;;;;;;;;;;11.94;100.00;102483.41;5093307;28;1882;-77
2023/09/30 05:14:28;;;;;;;;;;;;;;;11.94;100.00;102479.03;5091910;28;1668;-76
2023/09/30 05:16:54;;;;;;;;;;;;;;;11.94;100.00;102488.59;5088015;28;1167;-76
2023/09/30 05:19:20;;;;;;;;;;;;;;;11.93;100.00;102476.53;5091518;28;1488;-77
2023/09/30 05:21:46;;;;;;;;;;;;;;;11.91;100.00;102474.00;5089441;28;1159;-77
2023/09/30 05:24:11;;;;;;;;;;;;;;;11.88;100.00;102478.56;5089756;28;1209;-77
2023/09/30 05:26:36;;;;;;;;;;;;;;;11.90;100.00;102477.53;5081213;28;1733;-78
2023/09/30 05:29:02;;;;;;;;;;;;;;;11.90;100.00;102481.91;5083455;28;1368;-77
2023/09/30 05:31:27;;;;;;;;;;;;;;;11.91;100.00;102483.56;5088748;28;1957;-78
2023/09/30 05:33:52;;;;;;;;;;;;;;;11.91;100.00;102486.19;5091041;28;1132;-77
2023/09/30 05:36:18;;;;;;;;;;;;;;;11.89;100.00;102490.66;5083440;28;1143;-77
2023/09/30 05:38:43;;;;;;;;;;;;;;;11.89;100.00;102485.44;5083654;28;1047;-77
2023/09/30 05:41:08;;;;;;;;;;;;;;;11.88;100.00;102488.97;5082673;28;1143;-78
2023/09/30 05:43:33;;;;;;;;;;;;;;;11.86;100.00;102490.81;5087278;28;1184;-78
2023/09/30 05:45:58;;;;;;;;;;;;;;;11.82;100.00;102490.19;5090705;28;1329;-77
2023/09/30 05:48:24;;;;;;;;;;;;;;;11.80;100.00;102492.00;5083298;28;1197;-77
2023/09/30 05:50:49;;;;;;;;;;;;;;;11.78;100.00;102488.66;5081335;28;1878;-78
2023/09/30 05:53:14;;;;;;;;;;;;;;;11.79;100.00;102489.50;5086188;28;1135;-77
2023/09/30 05:55:43;;;;;;;;;;;;;;;11.80;100.00;102485.97;5081324;28;1203;-78
2023/09/30 05:58:13;;;;;;;;;;;;;;;11.80;100.00;102472.97;5080146;28;1099;-77
2023/09/30 06:00:39;;;;;;;;;;;;;;;11.80;100.00;102480.75;5080223;28;1090;-77
2023/09/30 06:03:06;;;;;;;;;;;;;;;11.77;100.00;102480.97;5083423;28;1620;-78
2023/09/30 06:05:32;;;;;;;;;;;;;;;11.78;100.00;102482.63;5081833;28;1147;-78
2023/09/30 06:07:57;;;;;;;;;;;;;;;11.78;100.00;102493.03;5084488;28;1201;-78
2023/09/30 06:10:23;;;;;;;;;;;;;;;11.77;100.00;102489.59;5085882;28;1124;-78
2023/09/30 06:12:48;;;;;;;;;;;;;;;11.74;100.00;102491.53;5090376;28;1957;-78
2023/09/30 06:15:21;;;;;;;;;;;;;;;11.74;100.00;102491.53;5086086;28;1140;-78
2023/09/30 06:17:47;;;;;;;;;;;;;;;11.73;100.00;102511.50;5075245;28;1151;-78
2023/09/30 06:20:16;;;;;;;;;;;;;;;11.72;100.00;102509.00;5079033;28;1230;-78
2023/09/30 06:22:42;;;;;;;;;;;;;;;11.73;100.00;102495.06;5082796;28;1139;-77
2023/09/30 06:25:07;;;;;;;;;;;;;;;11.73;100.00;102480.28;5084058;28;1143;-78
2023/09/30 06:27:32;;;;;;;;;;;;;;;11.74;100.00;102481.97;5082754;28;1304;-77
2023/09/30 06:29:57;;;;;;;;;;;;;;;11.75;100.00;102477.59;5083341;28;1156;-78
2023/09/30 06:32:23;;;;;;;;;;;;;;;11.75;100.00;102475.00;5089943;28;1950;-77
2023/09/30 06:34:48;;;;;;;;;;;;;;;11.77;100.00;102486.16;5090837;28;1237;-78
2023/09/30 06:37:13;;;;;;;;;;;;;;;11.78;100.00;102480.03;5089868;28;1090;-78
2023/09/30 06:39:39;;;;;;;;;;;;;;;11.77;100.00;102488.75;5086886;28;1304;-77
2023/09/30 06:42:04;;;;;;;;;;;;;;;11.79;100.00;102499.88;5092723;28;1119;-78
2023/09/30 06:44:31;;;;;;;;;;;;;;;11.80;100.00;102501.56;5090065;28;1553;-78
2023/09/30 06:46:56;;;;;;;;;;;;;;;11.79;100.00;102515.47;5083519;28;1818;-77
2023/09/30 06:49:21;;;;;;;;;;;;;;;11.82;100.00;102515.34;5076301;28;1817;-77
2023/09/30 06:51:47;;;;;;;;;;;;;;;11.86;100.00;102516.81;5085328;28;1964;-77
2023/09/30 06:54:12;;;;;;;;;;;;;;;11.91;100.00;102519.97;5080908;28;1182;-78
2023/09/30 06:56:37;;;;;;;;;;;;;;;11.95;100.00;102530.09;5084293;28;1195;-78
2023/09/30 06:59:03;;;;;;;;;;;;;;;11.98;100.00;102529.06;5079713;28;1252;-77
2023/09/30 07:01:28;;;;;;;;;;;;;;;12.02;100.00;102537.53;5080118;28;1206;-78
2023/09/30 07:03:53;;;;;;;;;;;;;;;12.04;100.00;102536.50;5080732;28;1480;-78
2023/09/30 07:06:25;;;;;;;;;;;;;;;12.08;100.00;102537.16;5077886;28;1492;-78
2023/09/30 07:08:50;;;;;;;;;;;;;;;12.12;100.00;102539.50;5082624;28;1175;-78
2023/09/30 07:11:15;;;;;;;;;;;;;;;12.15;100.00;102549.69;5090852;28;1961;-78
2023/09/30 07:13:41;;;;;;;;;;;;;;;12.18;100.00;102544.31;5088029;28;1362;-78
2023/09/30 07:16:06;;;;;;;;;;;;;;;12.22;100.00;102551.03;5084228;28;1158;-78
2023/09/30 07:18:31;;;;;;;;;;;;;;;12.27;100.00;102549.88;5090804;28;1118;-78
2023/09/30 07:20:56;;;;;;;;;;;;;;;12.32;100.00;102556.47;5085556;28;1240;-78
2023/09/30 07:23:22;;;;;;;;;;;;;;;12.35;100.00;102561.50;5081716;28;1207;-78
2023/09/30 07:25:47;;;;;;;;;;;;;;;12.41;100.00;102557.69;5088895;28;1214;-78
2023/09/30 07:28:13;;;;;;;;;;;;;;;12.45;100.00;102559.19;5084294;28;1210;-78
2023/09/30 07:30:38;;;;;;;;;;;;;;;12.49;100.00;102563.25;5090171;28;1988;-78
2023/09/30 07:33:04;;;;;;;;;;;;;;;12.53;100.00;102575.16;5083523;28;1170;-78
2023/09/30 07:35:29;;;;;;;;;;;;;;;12.57;100.00;102579.25;5088707;28;1214;-78
2023/09/30 07:37:54;;;;;;;;;;;;;;;12.64;100.00;102587.50;5093071;28;1089;-77
2023/09/30 07:40:21;;;;;;;;;;;;;;;12.69;100.00;102588.88;5090107;28;1414;-78
2023/09/30 07:42:46;;;;;;;;;;;;;;;12.73;100.00;102590.38;5089252;28;1159;-77
2023/09/30 07:45:16;;;;;;;;;;;;;;;12.77;100.00;102599.66;5097989;28;1262;-78
2023/09/30 07:47:41;;;;;;;;;;;;;;;12.84;100.00;102599.25;5082141;28;1273;-78
2023/09/30 07:50:09;;;;;;;;;;;;;;;12.90;100.00;102593.66;5092417;28;1085;-78
2023/09/30 07:52:34;;;;;;;;;;;;;;;12.95;100.00;102596.81;5085596;28;1967;-78
2023/09/30 07:55:00;;;;;;;;;;;;;;;12.98;100.00;102599.25;5079896;28;1117;-78
2023/09/30 07:57:25;;;;;;;;;;;;;;;12.98;100.00;102601.84;5084065;28;1133;-79
2023/09/30 07:59:51;;;;;;;;;;;;;;;13.02;100.00;102592.91;5083502;28;1144;-78
2023/09/30 08:02:17;;;;;;;;;;;;;;;13.08;100.00;102592.50;5085307;28;1092;-78
2023/09/30 08:04:43;;;;;;;;;;;;;;;13.15;100.00;102596.41;5082242;28;1219;-77
2023/09/30 08:07:09;;;;;;;;;;;;;;;13.23;100.00;102586.34;5084246;28;1322;-78
2023/09/30 08:09:34;;;;;;;;;;;;;;;13.34;100.00;102576.97;5089146;28;1193;-78
2023/09/30 08:11:59;;;;;;;;;;;;;;;13.41;100.00;102584.28;5091976;28;1967;-78
2023/09/30 08:14:24;;;;;;;;;;;;;;;13.51;100.00;102584.53;5091012;28;1147;-78
2023/09/30 08:16:50;;;;;;;;;;;;;;;13.60;100.00;102578.72;5088528;28;1138;-78
2023/09/30 08:19:15;;;;;;;;;;;;;;;13.67;100.00;102585.19;5097142;28;1413;-78
2023/09/30 08:21:40;;;;;;;;;;;;;;;13.76;100.00;102584.59;5096942;28;1098;-78
2023/09/30 08:24:05;;;;;;;;;;;;;;;13.84;100.00;102585.84;5094623;28;1400;-78
2023/09/30 08:26:31;;;;;;;;;;;;;;;13.88;100.00;102576.84;5096858;28;1057;-78
2023/09/30 08:28:56;;;;;;;;;;;;;;;13.94;100.00;102566.03;5089073;28;1216;-78
2023/09/30 08:31:21;;;;;;;;;;;;;;;14.00;100.00;102566.44;5096393;28;1889;-78
2023/09/30 08:33:47;;;;;;;;;;;;;;;14.07;100.00;102564.25;5096772;28;1191;-78
2023/09/30 08:36:12;;;;;;;;;;;;;;;14.15;100.00;102566.31;5089561;28;1218;-78
2023/09/30 08:38:39;;;;;;;;;;;;;;;14.23;100.00;102564.03;5091034;28;1274;-78
2023/09/30 08:41:04;;;;;;;;;;;;;;;14.30;100.00;102568.72;5091932;28;1218;-78
2023/09/30 08:43:33;;;;;;;;;;;;;;;14.39;100.00;102576.81;5091385;28;1208;-78
2023/09/30 08:46:02;;;;;;;;;;;;;;;14.47;100.00;102575.41;5091885;28;1373;-78
2023/09/30 08:48:28;;;;;;;;;;;;;;;14.54;100.00;102570.56;5087468;28;1148;-78
2023/09/30 08:50:54;;;;;;;;;;;;;;;14.62;100.00;102568.22;5089509;28;1965;-78
2023/09/30 08:53:19;;;;;;;;;;;;;;;14.73;100.00;102564.88;5076973;28;1131;-79
2023/09/30 08:55:45;;;;;;;;;;;;;;;14.80;100.00;102566.94;5080660;28;1193;-78
2023/09/30 08:58:12;;;;;;;;;;;;;;;14.87;100.00;102573.41;5087250;28;1073;-77
2023/09/30 09:00:38;;;;;;;;;;;;;;;14.97;100.00;102575.34;5085157;28;1264;-78
2023/09/30 09:03:03;;;;;;;;;;;;;;;15.04;100.00;102579.19;5081508;28;1242;-78
2023/09/30 09:05:29;;;;;;;;;;;;;;;15.12;100.00;102572.44;5084985;28;1233;-78
2023/09/30 09:07:54;;;;;;;;;;;;;;;15.20;100.00;102577.13;5083554;28;1296;-78
2023/09/30 09:10:19;;;;;;;;;;;;;;;15.28;100.00;102568.72;5084703;28;1224;-78
2023/09/30 09:12:54;;;;;;;;;;;;;;;15.33;100.00;102577.88;5086915;28;1957;-78
2023/09/30 09:15:26;;;;;;;;;;;;;;;15.40;100.00;102589.53;5082647;28;1284;-78
2023/09/30 09:17:52;;;;;;;;;;;;;;;15.52;100.00;102589.59;5076691;28;1426;-78
2023/09/30 09:20:21;;;;;;;;;;;;;;;15.61;100.00;102586.28;5083471;28;1294;-78
2023/09/30 09:22:47;;;;;;;;;;;;;;;15.71;100.00;102604.75;5084064;28;1301;-78
2023/09/30 09:25:12;;;;;;;;;;;;;;;15.79;100.00;102602.41;5076179;28;1158;-78
2023/09/30 09:27:38;;;;;;;;;;;;;;;15.85;100.00;102604.56;5084118;28;1234;-78
2023/09/30 09:30:16;;;;;;;;;;;;;;;15.93;100.00;102605.63;5093381;28;1150;-77
2023/09/30 09:32:54;;;;;;;;;;;;;;;16.04;100.00;102611.84;5090240;28;1965;-78
2023/09/30 09:35:21;;;;;;;;;;;;;;;16.13;100.00;102605.91;5081601;28;1076;-78
2023/09/30 09:37:55;;;;;;;;;;;;;;;16.21;99.27;102614.00;5092256;28;1327;-78
2023/09/30 09:40:25;;;;;;;;;;;;;;;16.26;99.85;102622.34;5090318;28;1191;-77
2023/09/30 09:42:53;;;;;;;;;;;;;;;16.38;100.00;102620.56;5088142;28;1144;-77
2023/09/30 09:45:20;;;;;;;;;;;;;;;16.49;98.82;102632.81;5098701;28;1097;-77
2023/09/30 09:47:46;;;;;;;;;;;;;;;16.57;98.82;102626.00;5081132;28;1098;-77
2023/09/30 09:50:13;;;;;;;;;;;;;;;16.63;98.55;102629.94;5089150;28;1175;-77
2023/09/30 09:52:39;;;;;;;;;;;;;;;16.68;98.27;102623.38;5090602;28;1951;-77
2023/09/30 09:55:06;;;;;;;;;;;;;;;16.74;97.41;102627.34;5082360;28;1609;-77
2023/09/30 09:57:31;;;;;;;;;;;;;;;16.78;97.27;102628.78;5078993;28;1151;-78
2023/09/30 09:59:57;;;;;;;;;;;;;;;16.82;97.12;102624.97;5082742;28;1154;-77
2023/09/30 10:02:22;;;;;;;;;;;;;;;16.86;96.73;102629.00;5089838;28;1105;-77
2023/09/30 10:04:48;;;;;;;;;;;;;;;16.91;96.68;102633.88;5086266;28;1140;-77
2023/09/30 10:07:19;;;;;;;;;;;;;;;16.96;96.68;102629.91;5077624;28;1204;-77
2023/09/30 10:09:46;;;;;;;;;;;;;;;17.04;95.78;102634.56;5084375;28;1186;-77
2023/09/30 10:12:12;;;;;;;;;;;;;;;17.08;95.65;102637.75;5081535;28;1894;-75
2023/09/30 10:14:38;;;;;;;;;;;;;;;17.14;95.12;102651.19;5075432;28;1211;-77
2023/09/30 10:17:03;;;;;;;;;;;;;;;17.18;95.38;102651.81;5076106;28;1139;-76
2023/09/30 10:19:30;;;;;;;;;;;;;;;17.26;94.48;102644.13;5086508;28;1304;-76
2023/09/30 10:22:14;;;;;;;;;;;;;;;17.30;94.20;102640.31;5081190;28;1126;-77
2023/09/30 10:24:39;;;;;;;;;;;;;;;17.32;94.04;102633.16;5082550;28;1282;-76
2023/09/30 10:27:23;;;;;;;;;;;;;;;17.37;93.77;102625.72;5074534;28;1223;-76
2023/09/30 10:29:53;;;;;;;;;;;;;;;17.51;92.35;102614.94;5075387;28;1409;-76
2023/09/30 10:32:19;;;;;;;;;;;;;;;17.56;93.35;102613.75;5076659;28;1996;-76
2023/09/30 10:34:52;;;;;;;;;;;;;;;17.62;92.89;102600.94;5088151;28;1348;-75
2023/09/30 10:37:21;;;;;;;;;;;;;;;17.73;92.92;102606.16;5084847;28;1406;-76
2023/09/30 10:39:53;;;;;;;;;;;;;;;17.82;92.47;102603.72;5077022;28;1221;-76
2023/09/30 10:42:37;;;;;;;;;;;;;;;17.91;91.16;102613.44;5090374;28;1158;-76
2023/09/30 10:45:04;;;;;;;;;;;;;;;17.90;91.13;102601.28;5091739;28;1378;-76
2023/09/30 10:47:30;;;;;;;;;;;;;;;17.97;90.87;102597.19;5077289;28;1294;-76
2023/09/30 10:49:56;;;;;;;;;;;;;;;18.04;90.01;102599.16;5083209;28;1270;-76
2023/09/30 10:52:22;;;;;;;;;;;;;;;18.12;90.17;102595.03;5088368;28;1897;-76
2023/09/30 10:54:48;;;;;;;;;;;;;;;18.21;89.88;102589.81;5083534;28;1179;-76
2023/09/30 10:57:25;;;;;;;;;;;;;;;18.26;89.50;102597.31;5085932;28;1178;-77
2023/09/30 11:00:06;;;;;;;;;;;;;;;18.31;89.10;102606.47;5080624;28;1127;-76
2023/09/30 11:02:31;;;;;;;;;;;;;;;18.33;88.40;102602.88;5079719;28;1386;-76
2023/09/30 11:04:56;;;;;;;;;;;;;;;18.33;86.21;102593.19;5078284;28;1354;-76
2023/09/30 11:07:24;;;;;;;;;;;;;;;18.19;86.66;102602.28;5082775;28;1081;-76
2023/09/30 11:09:49;;;;;;;;;;;;;;;18.16;86.81;102605.13;5084660;28;1356;-76
2023/09/30 11:12:15;;;;;;;;;;;;;;;18.27;86.65;102604.22;5080457;28;1901;-76
2023/09/30 11:14:40;;;;;;;;;;;;;;;18.37;86.48;102591.97;5089928;28;1159;-77
2023/09/30 11:17:06;;;;;;;;;;;;;;;18.49;86.41;102609.28;5078862;28;1363;-76
2023/09/30 11:19:46;;;;;;;;;;;;;;;18.65;86.30;102603.53;5081360;28;1468;-76
2023/09/30 11:22:11;;;;;;;;;;;;;;;18.75;85.54;102598.31;5085617;28;1599;-76
2023/09/30 11:24:37;;;;;;;;;;;;;;;18.83;84.93;102590.59;5088803;28;1134;-76
2023/09/30 11:27:02;;;;;;;;;;;;;;;18.93;82.96;102603.75;5082857;28;1133;-76
2023/09/30 11:29:27;;;;;;;;;;;;;;;18.86;83.47;102599.97;5079041;28;1278;-76
2023/09/30 11:31:52;;;;;;;;;;;;;;;18.80;83.32;102593.47;5075964;28;1960;-76
2023/09/30 11:34:18;;;;;;;;;;;;;;;18.68;82.61;102591.94;5076345;28;1671;-76
2023/09/30 11:36:50;;;;;;;;;;;;;;;18.52;82.25;102588.00;5079554;28;1319;-76
2023/09/30 11:39:23;;;;;;;;;;;;;;;18.42;82.28;102581.88;5081040;28;1197;-76
2023/09/30 11:41:52;;;;;;;;;;;;;;;18.37;82.57;102573.56;5084745;28;1504;-75
2023/09/30 11:44:18;;;;;;;;;;;;;;;18.31;82.39;102574.09;5097126;28;1475;-72
2023/09/30 11:46:53;;;;;;;;;;;;;;;18.24;81.80;102562.47;5084755;28;1150;-75
2023/09/30 11:49:32;;;;;;;;;;;;;;;18.20;82.17;102561.06;5091706;28;1227;-73
2023/09/30 11:52:04;;;;;;;;;;;;;;;18.25;82.15;102569.38;5092559;28;1967;-74
2023/09/30 11:54:33;;;;;;;;;;;;;;;18.36;81.47;102577.16;5085811;28;1469;-74
2023/09/30 11:57:02;;;;;;;;;;;;;;;18.49;81.14;102577.75;5086856;28;1426;-73
2023/09/30 11:59:28;;;;;;;;;;;;;;;18.70;79.14;102577.72;5088076;28;906;-74
2023/09/30 12:01:54;;;;;;;;;;;;;;;18.69;80.32;102567.31;5088314;28;1213;-76
2023/09/30 12:04:19;;;;;;;;;;;;;;;18.78;79.08;102577.03;5078925;28;1500;-75
2023/09/30 12:06:45;;;;;;;;;;;;;;;18.80;78.89;102591.66;5079448;28;1242;-73
2023/09/30 12:09:14;;;;;;;;;;;;;;;18.82;79.34;102594.19;5084939;28;1135;-73
2023/09/30 12:11:43;;;;;;;;;;;;;;;18.93;78.15;102594.06;5085923;28;1894;-73
2023/09/30 12:14:09;;;;;;;;;;;;;;;18.95;77.94;102594.75;5084840;28;1314;-73
2023/09/30 12:16:34;;;;;;;;;;;;;;;18.96;77.50;102583.25;5093439;28;1105;-75
2023/09/30 12:18:59;;;;;;;;;;;;;;;18.90;76.82;102575.91;5082146;28;1198;-74
2023/09/30 12:21:24;;;;;;;;;;;;;;;18.88;76.51;102572.59;5089912;28;1238;-74
2023/09/30 12:23:51;;;;;;;;;;;;;;;18.82;75.30;102565.28;5085511;28;2152;-73
2023/09/30 12:26:17;;;;;;;;;;;;;;;18.81;75.45;102566.25;5081120;28;1193;-72
2023/09/30 12:28:42;;;;;;;;;;;;;;;18.82;74.94;102563.47;5080041;28;1087;-74
2023/09/30 12:31:08;;;;;;;;;;;;;;;18.82;73.40;102560.00;5076807;28;1909;-73
2023/09/30 12:33:33;;;;;;;;;;;;;;;18.85;74.61;102549.22;5081077;28;1200;-73
2023/09/30 12:35:59;;;;;;;;;;;;;;;18.87;74.52;102549.91;5079524;28;1066;-74
2023/09/30 12:38:25;;;;;;;;;;;;;;;18.91;73.29;102535.50;5079253;28;1043;-73